sensor_id;sensor_type;location;lat;lon;timestamp;P1;durP1;ratioP1;P2;durP2;ratioP2
52650;SDS011;38537;47.226;39.702;2023-03-26T00:01:29;26.17;;;18.23;;
52650;SDS011;38537;47.226;39.702;2023-03-26T00:04:01;27.63;;;17.45;;
52650;SDS011;38537;47.226;39.702;2023-03-26T00:06:32;27.58;;;18.33;;
52650;SDS011;38537;47.226;39.702;2023-03-26T00:09:06;30.02;;;18.27;;
52650;SDS011;38537;47.226;39.702;2023-03-26T00:11:35;27.33;;;18.25;;
52650;SDS011;38537;47.226;39.702;2023-03-26T00:14:04;30.70;;;18.90;;
52650;SDS011;38537;47.226;39.702;2023-03-26T00:16:32;29.77;;;19.95;;
52650;SDS011;38537;47.226;39.702;2023-03-26T00:19:00;27.67;;;19.17;;
52650;SDS011;38537;47.226;39.702;2023-03-26T00:21:29;28.17;;;18.95;;
52650;SDS011;38537;47.226;39.702;2023-03-26T00:23:58;28.20;;;18.88;;
52650;SDS011;38537;47.226;39.702;2023-03-26T00:26:31;26.80;;;18.38;;
52650;SDS011;38537;47.226;39.702;2023-03-26T00:28:59;29.38;;;19.38;;
52650;SDS011;38537;47.226;39.702;2023-03-26T00:31:29;31.90;;;19.08;;
52650;SDS011;38537;47.226;39.702;2023-03-26T00:33:56;27.77;;;17.33;;
52650;SDS011;38537;47.226;39.702;2023-03-26T00:36:26;35.08;;;19.23;;
52650;SDS011;38537;47.226;39.702;2023-03-26T00:38:54;29.42;;;18.55;;
52650;SDS011;38537;47.226;39.702;2023-03-26T00:41:22;28.73;;;18.38;;
52650;SDS011;38537;47.226;39.702;2023-03-26T00:43:53;37.63;;;19.60;;
52650;SDS011;38537;47.226;39.702;2023-03-26T00:46:23;25.58;;;17.50;;
52650;SDS011;38537;47.226;39.702;2023-03-26T00:48:51;30.83;;;18.88;;
52650;SDS011;38537;47.226;39.702;2023-03-26T00:51:19;31.55;;;18.13;;
52650;SDS011;38537;47.226;39.702;2023-03-26T00:53:48;28.58;;;18.70;;
52650;SDS011;38537;47.226;39.702;2023-03-26T00:56:17;26.65;;;17.58;;
52650;SDS011;38537;47.226;39.702;2023-03-26T00:58:45;30.00;;;17.90;;
52650;SDS011;38537;47.226;39.702;2023-03-26T01:01:15;30.63;;;18.15;;
52650;SDS011;38537;47.226;39.702;2023-03-26T01:03:47;26.98;;;16.77;;
52650;SDS011;38537;47.226;39.702;2023-03-26T01:06:33;27.77;;;17.17;;
52650;SDS011;38537;47.226;39.702;2023-03-26T01:09:11;29.05;;;17.70;;
52650;SDS011;38537;47.226;39.702;2023-03-26T01:11:42;26.17;;;17.90;;
52650;SDS011;38537;47.226;39.702;2023-03-26T01:14:20;31.25;;;19.02;;
52650;SDS011;38537;47.226;39.702;2023-03-26T01:16:58;27.65;;;18.17;;
52650;SDS011;38537;47.226;39.702;2023-03-26T01:22:16;33.35;;;19.63;;
52650;SDS011;38537;47.226;39.702;2023-03-26T01:24:48;31.73;;;19.80;;
52650;SDS011;38537;47.226;39.702;2023-03-26T01:27:22;28.30;;;19.75;;
52650;SDS011;38537;47.226;39.702;2023-03-26T01:33:05;31.85;;;20.75;;
52650;SDS011;38537;47.226;39.702;2023-03-26T01:40:45;32.25;;;21.60;;
52650;SDS011;38537;47.226;39.702;2023-03-26T01:45:58;30.13;;;20.95;;
52650;SDS011;38537;47.226;39.702;2023-03-26T01:48:33;27.70;;;19.70;;
52650;SDS011;38537;47.226;39.702;2023-03-26T01:51:03;35.47;;;20.70;;
52650;SDS011;38537;47.226;39.702;2023-03-26T01:53:32;30.70;;;20.30;;
52650;SDS011;38537;47.226;39.702;2023-03-26T02:04:23;37.45;;;22.92;;
52650;SDS011;38537;47.226;39.702;2023-03-26T02:07:02;41.47;;;24.70;;
52650;SDS011;38537;47.226;39.702;2023-03-26T02:09:36;41.53;;;25.70;;
52650;SDS011;38537;47.226;39.702;2023-03-26T02:12:15;37.50;;;25.58;;
52650;SDS011;38537;47.226;39.702;2023-03-26T02:14:44;43.53;;;27.40;;
52650;SDS011;38537;47.226;39.702;2023-03-26T02:17:31;41.10;;;25.67;;
52650;SDS011;38537;47.226;39.702;2023-03-26T02:19:59;43.85;;;26.70;;
52650;SDS011;38537;47.226;39.702;2023-03-26T02:22:37;43.13;;;25.98;;
52650;SDS011;38537;47.226;39.702;2023-03-26T02:25:15;41.78;;;25.63;;
52650;SDS011;38537;47.226;39.702;2023-03-26T02:27:46;38.85;;;23.45;;
52650;SDS011;38537;47.226;39.702;2023-03-26T02:30:17;37.22;;;24.95;;
52650;SDS011;38537;47.226;39.702;2023-03-26T02:32:48;42.17;;;24.67;;
52650;SDS011;38537;47.226;39.702;2023-03-26T02:35:20;39.58;;;24.63;;
52650;SDS011;38537;47.226;39.702;2023-03-26T02:40:21;40.83;;;25.33;;
52650;SDS011;38537;47.226;39.702;2023-03-26T02:42:49;43.08;;;24.85;;
52650;SDS011;38537;47.226;39.702;2023-03-26T02:45:17;44.92;;;24.45;;
52650;SDS011;38537;47.226;39.702;2023-03-26T02:48:04;42.28;;;25.45;;
52650;SDS011;38537;47.226;39.702;2023-03-26T02:51:04;54.72;;;30.27;;
52650;SDS011;38537;47.226;39.702;2023-03-26T02:53:35;40.50;;;24.67;;
52650;SDS011;38537;47.226;39.702;2023-03-26T02:56:26;46.33;;;27.13;;
52650;SDS011;38537;47.226;39.702;2023-03-26T02:59:16;80.32;;;40.70;;
52650;SDS011;38537;47.226;39.702;2023-03-26T03:01:48;102.88;;;46.83;;
52650;SDS011;38537;47.226;39.702;2023-03-26T03:04:17;89.57;;;44.55;;
52650;SDS011;38537;47.226;39.702;2023-03-26T03:06:46;54.88;;;31.38;;
52650;SDS011;38537;47.226;39.702;2023-03-26T03:09:19;51.65;;;30.08;;
52650;SDS011;38537;47.226;39.702;2023-03-26T03:12:15;46.08;;;28.83;;
52650;SDS011;38537;47.226;39.702;2023-03-26T03:14:42;53.90;;;28.90;;
52650;SDS011;38537;47.226;39.702;2023-03-26T03:17:10;47.25;;;26.00;;
52650;SDS011;38537;47.226;39.702;2023-03-26T03:19:37;39.42;;;23.38;;
52650;SDS011;38537;47.226;39.702;2023-03-26T03:22:04;33.08;;;20.73;;
52650;SDS011;38537;47.226;39.702;2023-03-26T03:24:32;30.65;;;18.08;;
52650;SDS011;38537;47.226;39.702;2023-03-26T03:27:00;34.25;;;17.48;;
52650;SDS011;38537;47.226;39.702;2023-03-26T03:29:37;46.25;;;23.30;;
52650;SDS011;38537;47.226;39.702;2023-03-26T03:32:40;43.83;;;24.00;;
52650;SDS011;38537;47.226;39.702;2023-03-26T03:35:09;30.08;;;19.48;;
52650;SDS011;38537;47.226;39.702;2023-03-26T03:37:38;26.40;;;15.23;;
52650;SDS011;38537;47.226;39.702;2023-03-26T03:40:07;44.08;;;21.55;;
52650;SDS011;38537;47.226;39.702;2023-03-26T03:42:38;34.05;;;19.35;;
52650;SDS011;38537;47.226;39.702;2023-03-26T03:45:06;31.27;;;17.80;;
52650;SDS011;38537;47.226;39.702;2023-03-26T03:47:57;27.75;;;15.90;;
52650;SDS011;38537;47.226;39.702;2023-03-26T03:50:40;28.40;;;15.88;;
52650;SDS011;38537;47.226;39.702;2023-03-26T03:53:27;30.10;;;15.40;;
52650;SDS011;38537;47.226;39.702;2023-03-26T03:55:58;23.13;;;14.68;;
52650;SDS011;38537;47.226;39.702;2023-03-26T03:58:56;25.05;;;14.70;;
52650;SDS011;38537;47.226;39.702;2023-03-26T04:01:30;28.27;;;14.77;;
52650;SDS011;38537;47.226;39.702;2023-03-26T04:04:11;19.30;;;12.65;;
52650;SDS011;38537;47.226;39.702;2023-03-26T04:06:49;22.40;;;14.40;;
52650;SDS011;38537;47.226;39.702;2023-03-26T04:09:18;22.13;;;13.40;;
52650;SDS011;38537;47.226;39.702;2023-03-26T04:11:47;25.40;;;13.73;;
52650;SDS011;38537;47.226;39.702;2023-03-26T04:14:39;20.08;;;11.77;;
52650;SDS011;38537;47.226;39.702;2023-03-26T04:17:17;20.73;;;13.05;;
52650;SDS011;38537;47.226;39.702;2023-03-26T04:19:49;24.55;;;13.65;;
52650;SDS011;38537;47.226;39.702;2023-03-26T04:22:19;25.15;;;13.85;;
52650;SDS011;38537;47.226;39.702;2023-03-26T04:24:53;23.73;;;13.52;;
52650;SDS011;38537;47.226;39.702;2023-03-26T04:27:58;22.23;;;14.25;;
52650;SDS011;38537;47.226;39.702;2023-03-26T04:30:44;19.27;;;11.88;;
52650;SDS011;38537;47.226;39.702;2023-03-26T04:33:32;20.48;;;13.82;;
52650;SDS011;38537;47.226;39.702;2023-03-26T04:36:02;24.20;;;14.05;;
52650;SDS011;38537;47.226;39.702;2023-03-26T04:38:36;27.27;;;14.48;;
52650;SDS011;38537;47.226;39.702;2023-03-26T04:41:11;23.95;;;12.75;;
52650;SDS011;38537;47.226;39.702;2023-03-26T04:43:59;18.30;;;11.50;;
52650;SDS011;38537;47.226;39.702;2023-03-26T04:46:38;21.90;;;12.38;;
52650;SDS011;38537;47.226;39.702;2023-03-26T04:49:20;18.48;;;11.93;;
52650;SDS011;38537;47.226;39.702;2023-03-26T04:51:48;21.95;;;12.10;;
52650;SDS011;38537;47.226;39.702;2023-03-26T04:54:54;21.15;;;11.55;;
52650;SDS011;38537;47.226;39.702;2023-03-26T04:57:25;20.17;;;12.05;;
52650;SDS011;38537;47.226;39.702;2023-03-26T05:00:10;18.67;;;11.13;;
52650;SDS011;38537;47.226;39.702;2023-03-26T05:02:51;21.88;;;10.88;;
52650;SDS011;38537;47.226;39.702;2023-03-26T05:05:23;18.83;;;11.57;;
52650;SDS011;38537;47.226;39.702;2023-03-26T05:07:52;18.50;;;10.57;;
52650;SDS011;38537;47.226;39.702;2023-03-26T05:10:20;18.13;;;11.23;;
52650;SDS011;38537;47.226;39.702;2023-03-26T05:12:56;19.00;;;11.45;;
52650;SDS011;38537;47.226;39.702;2023-03-26T05:15:31;19.20;;;12.77;;
52650;SDS011;38537;47.226;39.702;2023-03-26T05:18:12;21.55;;;11.68;;
52650;SDS011;38537;47.226;39.702;2023-03-26T05:20:41;26.52;;;11.75;;
52650;SDS011;38537;47.226;39.702;2023-03-26T05:23:10;18.05;;;10.73;;
52650;SDS011;38537;47.226;39.702;2023-03-26T05:25:41;22.50;;;11.63;;
52650;SDS011;38537;47.226;39.702;2023-03-26T05:28:15;22.50;;;11.43;;
52650;SDS011;38537;47.226;39.702;2023-03-26T05:31:11;16.27;;;10.35;;
52650;SDS011;38537;47.226;39.702;2023-03-26T05:33:45;19.42;;;11.48;;
52650;SDS011;38537;47.226;39.702;2023-03-26T05:36:12;34.00;;;12.43;;
52650;SDS011;38537;47.226;39.702;2023-03-26T05:38:52;22.27;;;12.15;;
52650;SDS011;38537;47.226;39.702;2023-03-26T05:41:40;21.70;;;11.90;;
52650;SDS011;38537;47.226;39.702;2023-03-26T05:44:07;17.52;;;11.55;;
52650;SDS011;38537;47.226;39.702;2023-03-26T05:46:35;21.90;;;12.40;;
52650;SDS011;38537;47.226;39.702;2023-03-26T05:49:02;23.95;;;12.75;;
52650;SDS011;38537;47.226;39.702;2023-03-26T05:51:32;20.10;;;12.80;;
52650;SDS011;38537;47.226;39.702;2023-03-26T05:54:20;28.30;;;12.77;;
52650;SDS011;38537;47.226;39.702;2023-03-26T05:57:06;25.55;;;12.80;;
52650;SDS011;38537;47.226;39.702;2023-03-26T05:59:52;21.70;;;12.68;;
52650;SDS011;38537;47.226;39.702;2023-03-26T06:02:38;20.38;;;12.13;;
52650;SDS011;38537;47.226;39.702;2023-03-26T06:05:25;32.50;;;13.40;;
52650;SDS011;38537;47.226;39.702;2023-03-26T06:08:25;29.92;;;14.25;;
52650;SDS011;38537;47.226;39.702;2023-03-26T06:11:03;30.35;;;13.60;;
52650;SDS011;38537;47.226;39.702;2023-03-26T06:13:34;22.33;;;13.45;;
52650;SDS011;38537;47.226;39.702;2023-03-26T06:16:02;22.17;;;13.10;;
52650;SDS011;38537;47.226;39.702;2023-03-26T06:18:32;26.35;;;14.48;;
52650;SDS011;38537;47.226;39.702;2023-03-26T06:21:18;30.00;;;14.00;;
52650;SDS011;38537;47.226;39.702;2023-03-26T06:23:53;26.92;;;13.90;;
52650;SDS011;38537;47.226;39.702;2023-03-26T06:26:41;21.10;;;14.57;;
52650;SDS011;38537;47.226;39.702;2023-03-26T06:29:27;22.50;;;14.20;;
52650;SDS011;38537;47.226;39.702;2023-03-26T06:32:02;22.85;;;14.02;;
52650;SDS011;38537;47.226;39.702;2023-03-26T06:34:54;25.15;;;15.25;;
52650;SDS011;38537;47.226;39.702;2023-03-26T06:37:21;23.50;;;13.45;;
52650;SDS011;38537;47.226;39.702;2023-03-26T06:39:54;25.45;;;13.73;;
52650;SDS011;38537;47.226;39.702;2023-03-26T06:42:40;23.30;;;13.25;;
52650;SDS011;38537;47.226;39.702;2023-03-26T06:45:54;21.52;;;13.73;;
52650;SDS011;38537;47.226;39.702;2023-03-26T06:48:37;24.52;;;13.98;;
52650;SDS011;38537;47.226;39.702;2023-03-26T06:51:31;23.08;;;13.95;;
52650;SDS011;38537;47.226;39.702;2023-03-26T06:54:08;21.25;;;12.75;;
52650;SDS011;38537;47.226;39.702;2023-03-26T06:56:47;19.23;;;12.55;;
52650;SDS011;38537;47.226;39.702;2023-03-26T06:59:34;21.13;;;14.10;;
52650;SDS011;38537;47.226;39.702;2023-03-26T07:02:20;23.30;;;14.40;;
52650;SDS011;38537;47.226;39.702;2023-03-26T07:05:06;21.00;;;13.23;;
52650;SDS011;38537;47.226;39.702;2023-03-26T07:07:52;29.65;;;14.00;;
52650;SDS011;38537;47.226;39.702;2023-03-26T07:10:55;21.98;;;14.43;;
52650;SDS011;38537;47.226;39.702;2023-03-26T07:13:42;24.20;;;14.50;;
52650;SDS011;38537;47.226;39.702;2023-03-26T07:16:29;18.63;;;13.00;;
52650;SDS011;38537;47.226;39.702;2023-03-26T07:19:02;24.73;;;14.57;;
52650;SDS011;38537;47.226;39.702;2023-03-26T07:21:34;27.08;;;13.93;;
52650;SDS011;38537;47.226;39.702;2023-03-26T07:26:56;18.65;;;12.20;;
52650;SDS011;38537;47.226;39.702;2023-03-26T07:30:02;20.55;;;13.95;;
52650;SDS011;38537;47.226;39.702;2023-03-26T07:36:19;18.90;;;12.20;;
52650;SDS011;38537;47.226;39.702;2023-03-26T07:39:39;19.52;;;12.93;;
52650;SDS011;38537;47.226;39.702;2023-03-26T07:45:42;23.00;;;13.15;;
52650;SDS011;38537;47.226;39.702;2023-03-26T07:48:24;24.35;;;13.18;;
52650;SDS011;38537;47.226;39.702;2023-03-26T07:51:14;15.85;;;10.23;;
52650;SDS011;38537;47.226;39.702;2023-03-26T07:53:54;20.33;;;11.00;;
52650;SDS011;38537;47.226;39.702;2023-03-26T07:59:56;22.73;;;12.20;;
52650;SDS011;38537;47.226;39.702;2023-03-26T08:05:47;14.88;;;11.02;;
52650;SDS011;38537;47.226;39.702;2023-03-26T08:17:13;19.58;;;11.57;;
52650;SDS011;38537;47.226;39.702;2023-03-26T08:20:17;17.60;;;11.65;;
52650;SDS011;38537;47.226;39.702;2023-03-26T08:22:51;19.65;;;11.68;;
52650;SDS011;38537;47.226;39.702;2023-03-26T08:25:30;27.23;;;15.13;;
52650;SDS011;38537;47.226;39.702;2023-03-26T08:30:45;21.88;;;13.60;;
52650;SDS011;38537;47.226;39.702;2023-03-26T08:33:17;18.35;;;11.90;;
52650;SDS011;38537;47.226;39.702;2023-03-26T08:35:46;25.02;;;12.40;;
52650;SDS011;38537;47.226;39.702;2023-03-26T08:38:16;22.48;;;12.55;;
52650;SDS011;38537;47.226;39.702;2023-03-26T09:15:02;16.55;;;8.90;;
52650;SDS011;38537;47.226;39.702;2023-03-26T09:23:20;22.63;;;14.68;;
52650;SDS011;38537;47.226;39.702;2023-03-26T09:26:02;21.50;;;13.27;;
52650;SDS011;38537;47.226;39.702;2023-03-26T09:34:27;16.85;;;10.20;;
52650;SDS011;38537;47.226;39.702;2023-03-26T09:37:12;12.82;;;9.13;;
52650;SDS011;38537;47.226;39.702;2023-03-26T09:39:47;19.80;;;11.05;;
52650;SDS011;38537;47.226;39.702;2023-03-26T09:47:56;20.27;;;12.93;;
52650;SDS011;38537;47.226;39.702;2023-03-26T09:56:30;20.40;;;10.38;;
52650;SDS011;38537;47.226;39.702;2023-03-26T10:52:11;25.15;;;17.48;;
52650;SDS011;38537;47.226;39.702;2023-03-26T10:54:49;21.45;;;14.68;;
52650;SDS011;38537;47.226;39.702;2023-03-26T10:57:33;23.25;;;16.00;;
52650;SDS011;38537;47.226;39.702;2023-03-26T11:00:24;27.35;;;16.98;;
52650;SDS011;38537;47.226;39.702;2023-03-26T11:03:06;19.95;;;15.35;;
52650;SDS011;38537;47.226;39.702;2023-03-26T11:05:57;21.00;;;14.48;;
52650;SDS011;38537;47.226;39.702;2023-03-26T11:11:16;28.58;;;19.20;;
52650;SDS011;38537;47.226;39.702;2023-03-26T11:17:03;27.35;;;19.10;;
52650;SDS011;38537;47.226;39.702;2023-03-26T11:22:16;25.50;;;18.25;;
52650;SDS011;38537;47.226;39.702;2023-03-26T11:30:53;27.05;;;19.05;;
52650;SDS011;38537;47.226;39.702;2023-03-26T11:33:23;27.05;;;20.23;;
52650;SDS011;38537;47.226;39.702;2023-03-26T11:36:16;32.33;;;22.33;;
52650;SDS011;38537;47.226;39.702;2023-03-26T11:38:49;27.58;;;19.30;;
52650;SDS011;38537;47.226;39.702;2023-03-26T11:41:23;24.42;;;17.48;;
52650;SDS011;38537;47.226;39.702;2023-03-26T11:44:04;28.05;;;20.35;;
52650;SDS011;38537;47.226;39.702;2023-03-26T11:46:46;29.75;;;19.48;;
52650;SDS011;38537;47.226;39.702;2023-03-26T11:49:18;29.40;;;19.00;;
52650;SDS011;38537;47.226;39.702;2023-03-26T11:51:47;31.80;;;19.83;;
52650;SDS011;38537;47.226;39.702;2023-03-26T11:54:15;29.38;;;19.10;;
52650;SDS011;38537;47.226;39.702;2023-03-26T11:59:36;32.78;;;22.48;;
52650;SDS011;38537;47.226;39.702;2023-03-26T12:02:29;35.78;;;21.98;;
52650;SDS011;38537;47.226;39.702;2023-03-26T12:05:25;32.45;;;22.48;;
52650;SDS011;38537;47.226;39.702;2023-03-26T12:07:58;32.63;;;21.85;;
52650;SDS011;38537;47.226;39.702;2023-03-26T12:10:34;31.48;;;21.90;;
52650;SDS011;38537;47.226;39.702;2023-03-26T12:16:09;32.58;;;21.52;;
52650;SDS011;38537;47.226;39.702;2023-03-26T12:18:41;37.28;;;24.63;;
52650;SDS011;38537;47.226;39.702;2023-03-26T12:21:11;33.15;;;21.75;;
52650;SDS011;38537;47.226;39.702;2023-03-26T12:26:29;37.67;;;24.85;;
52650;SDS011;38537;47.226;39.702;2023-03-26T12:29:07;34.88;;;22.55;;
52650;SDS011;38537;47.226;39.702;2023-03-26T12:31:41;29.05;;;19.35;;
52650;SDS011;38537;47.226;39.702;2023-03-26T12:34:20;26.48;;;18.73;;
52650;SDS011;38537;47.226;39.702;2023-03-26T12:36:55;27.25;;;18.88;;
52650;SDS011;38537;47.226;39.702;2023-03-26T12:42:24;29.58;;;18.33;;
52650;SDS011;38537;47.226;39.702;2023-03-26T12:45:21;23.95;;;17.25;;
52650;SDS011;38537;47.226;39.702;2023-03-26T12:47:53;25.80;;;17.65;;
52650;SDS011;38537;47.226;39.702;2023-03-26T12:55:59;20.40;;;14.38;;
52650;SDS011;38537;47.226;39.702;2023-03-26T12:58:49;20.17;;;13.20;;
52650;SDS011;38537;47.226;39.702;2023-03-26T13:06:44;19.20;;;13.23;;
52650;SDS011;38537;47.226;39.702;2023-03-26T13:20:33;20.70;;;12.75;;
52650;SDS011;38537;47.226;39.702;2023-03-26T13:23:22;18.58;;;12.80;;
52650;SDS011;38537;47.226;39.702;2023-03-26T13:32:25;19.20;;;11.55;;
52650;SDS011;38537;47.226;39.702;2023-03-26T13:35:07;21.10;;;11.82;;
52650;SDS011;38537;47.226;39.702;2023-03-26T13:37:42;16.33;;;10.43;;
52650;SDS011;38537;47.226;39.702;2023-03-26T13:40:47;14.40;;;10.20;;
52650;SDS011;38537;47.226;39.702;2023-03-26T13:43:15;15.32;;;10.05;;
52650;SDS011;38537;47.226;39.702;2023-03-26T13:48:48;11.73;;;7.93;;
52650;SDS011;38537;47.226;39.702;2023-03-26T13:54:21;13.25;;;9.60;;
52650;SDS011;38537;47.226;39.702;2023-03-26T13:56:59;12.65;;;8.90;;
52650;SDS011;38537;47.226;39.702;2023-03-26T13:59:49;15.98;;;10.07;;
52650;SDS011;38537;47.226;39.702;2023-03-26T14:02:40;12.50;;;9.05;;
52650;SDS011;38537;47.226;39.702;2023-03-26T14:05:26;13.82;;;9.45;;
52650;SDS011;38537;47.226;39.702;2023-03-26T14:08:08;12.20;;;9.27;;
52650;SDS011;38537;47.226;39.702;2023-03-26T14:11:01;14.88;;;9.70;;
52650;SDS011;38537;47.226;39.702;2023-03-26T14:13:45;13.48;;;8.60;;
52650;SDS011;38537;47.226;39.702;2023-03-26T14:16:25;11.15;;;8.23;;
52650;SDS011;38537;47.226;39.702;2023-03-26T14:30:40;14.10;;;9.13;;
52650;SDS011;38537;47.226;39.702;2023-03-26T14:36:24;11.80;;;7.78;;
52650;SDS011;38537;47.226;39.702;2023-03-26T14:44:37;14.73;;;8.95;;
52650;SDS011;38537;47.226;39.702;2023-03-26T14:47:18;13.55;;;9.02;;
52650;SDS011;38537;47.226;39.702;2023-03-26T14:52:49;14.60;;;7.97;;
52650;SDS011;38537;47.226;39.702;2023-03-26T15:01:20;11.40;;;7.55;;
52650;SDS011;38537;47.226;39.702;2023-03-26T15:04:06;14.60;;;8.95;;
52650;SDS011;38537;47.226;39.702;2023-03-26T15:12:59;16.38;;;8.90;;
52650;SDS011;38537;47.226;39.702;2023-03-26T15:35:18;13.75;;;8.32;;
52650;SDS011;38537;47.226;39.702;2023-03-26T15:44:31;11.38;;;7.30;;
52650;SDS011;38537;47.226;39.702;2023-03-26T15:58:48;12.75;;;7.78;;
52650;SDS011;38537;47.226;39.702;2023-03-26T16:01:42;9.57;;;7.45;;
52650;SDS011;38537;47.226;39.702;2023-03-26T16:04:51;11.63;;;6.70;;
52650;SDS011;38537;47.226;39.702;2023-03-26T16:16:55;7.95;;;5.95;;
52650;SDS011;38537;47.226;39.702;2023-03-26T16:21:59;8.63;;;6.13;;
52650;SDS011;38537;47.226;39.702;2023-03-26T16:24:33;11.93;;;6.00;;
52650;SDS011;38537;47.226;39.702;2023-03-26T16:27:06;8.43;;;6.13;;
52650;SDS011;38537;47.226;39.702;2023-03-26T16:35:00;8.68;;;6.20;;
52650;SDS011;38537;47.226;39.702;2023-03-26T16:37:49;8.48;;;5.57;;
52650;SDS011;38537;47.226;39.702;2023-03-26T16:40:34;9.70;;;6.30;;
52650;SDS011;38537;47.226;39.702;2023-03-26T16:43:22;9.70;;;6.18;;
52650;SDS011;38537;47.226;39.702;2023-03-26T16:46:08;11.77;;;6.63;;
52650;SDS011;38537;47.226;39.702;2023-03-26T16:52:02;8.77;;;6.00;;
52650;SDS011;38537;47.226;39.702;2023-03-26T16:57:40;11.18;;;5.78;;
52650;SDS011;38537;47.226;39.702;2023-03-26T17:02:59;6.75;;;5.15;;
52650;SDS011;38537;47.226;39.702;2023-03-26T17:11:58;7.32;;;4.60;;
52650;SDS011;38537;47.226;39.702;2023-03-26T17:26:17;9.00;;;5.35;;
52650;SDS011;38537;47.226;39.702;2023-03-26T17:29:00;6.70;;;4.85;;
52650;SDS011;38537;47.226;39.702;2023-03-26T17:42:28;7.60;;;4.90;;
52650;SDS011;38537;47.226;39.702;2023-03-26T17:44:59;5.85;;;4.60;;
52650;SDS011;38537;47.226;39.702;2023-03-26T17:47:39;7.32;;;4.80;;
52650;SDS011;38537;47.226;39.702;2023-03-26T17:50:20;6.63;;;4.15;;
52650;SDS011;38537;47.226;39.702;2023-03-26T17:52:57;7.28;;;4.60;;
52650;SDS011;38537;47.226;39.702;2023-03-26T17:55:31;7.47;;;4.93;;
52650;SDS011;38537;47.226;39.702;2023-03-26T18:00:39;6.68;;;4.60;;
52650;SDS011;38537;47.226;39.702;2023-03-26T18:03:28;6.65;;;3.95;;
52650;SDS011;38537;47.226;39.702;2023-03-26T18:06:04;6.78;;;3.70;;
52650;SDS011;38537;47.226;39.702;2023-03-26T18:09:10;5.68;;;4.10;;
52650;SDS011;38537;47.226;39.702;2023-03-26T18:12:07;6.40;;;4.00;;
52650;SDS011;38537;47.226;39.702;2023-03-26T18:15:10;6.93;;;4.47;;
52650;SDS011;38537;47.226;39.702;2023-03-26T18:17:42;8.13;;;3.88;;
52650;SDS011;38537;47.226;39.702;2023-03-26T18:20:22;5.30;;;3.85;;
52650;SDS011;38537;47.226;39.702;2023-03-26T18:22:54;5.55;;;3.95;;
52650;SDS011;38537;47.226;39.702;2023-03-26T18:25:29;5.75;;;4.32;;
52650;SDS011;38537;47.226;39.702;2023-03-26T18:28:03;4.88;;;3.40;;
52650;SDS011;38537;47.226;39.702;2023-03-26T18:30:31;5.10;;;3.92;;
52650;SDS011;38537;47.226;39.702;2023-03-26T18:33:13;8.93;;;4.30;;
52650;SDS011;38537;47.226;39.702;2023-03-26T18:35:44;6.20;;;4.35;;
52650;SDS011;38537;47.226;39.702;2023-03-26T18:38:17;7.03;;;4.47;;
52650;SDS011;38537;47.226;39.702;2023-03-26T18:41:01;5.72;;;4.47;;
52650;SDS011;38537;47.226;39.702;2023-03-26T18:43:31;7.72;;;5.20;;
52650;SDS011;38537;47.226;39.702;2023-03-26T18:46:11;6.07;;;4.82;;
52650;SDS011;38537;47.226;39.702;2023-03-26T18:48:40;6.82;;;5.43;;
52650;SDS011;38537;47.226;39.702;2023-03-26T18:51:09;7.35;;;5.03;;
52650;SDS011;38537;47.226;39.702;2023-03-26T18:53:38;6.50;;;4.63;;
52650;SDS011;38537;47.226;39.702;2023-03-26T18:56:17;7.97;;;4.70;;
52650;SDS011;38537;47.226;39.702;2023-03-26T18:58:48;10.90;;;5.20;;
52650;SDS011;38537;47.226;39.702;2023-03-26T19:01:17;7.13;;;4.90;;
52650;SDS011;38537;47.226;39.702;2023-03-26T19:03:51;7.88;;;4.78;;
52650;SDS011;38537;47.226;39.702;2023-03-26T19:06:20;6.70;;;4.95;;
52650;SDS011;38537;47.226;39.702;2023-03-26T19:08:48;7.18;;;4.70;;
52650;SDS011;38537;47.226;39.702;2023-03-26T19:11:16;7.25;;;5.25;;
52650;SDS011;38537;47.226;39.702;2023-03-26T19:13:48;8.73;;;5.80;;
52650;SDS011;38537;47.226;39.702;2023-03-26T19:16:25;7.05;;;5.25;;
52650;SDS011;38537;47.226;39.702;2023-03-26T19:19:00;6.40;;;4.72;;
52650;SDS011;38537;47.226;39.702;2023-03-26T19:21:31;8.55;;;4.90;;
52650;SDS011;38537;47.226;39.702;2023-03-26T19:24:00;6.90;;;5.25;;
52650;SDS011;38537;47.226;39.702;2023-03-26T19:26:29;7.10;;;5.20;;
52650;SDS011;38537;47.226;39.702;2023-03-26T19:28:57;9.25;;;5.15;;
52650;SDS011;38537;47.226;39.702;2023-03-26T19:31:36;7.75;;;5.78;;
52650;SDS011;38537;47.226;39.702;2023-03-26T19:36:48;9.32;;;6.13;;
52650;SDS011;38537;47.226;39.702;2023-03-26T19:39:24;11.18;;;6.00;;
52650;SDS011;38537;47.226;39.702;2023-03-26T19:42:04;9.45;;;6.60;;
52650;SDS011;38537;47.226;39.702;2023-03-26T19:44:33;8.68;;;6.68;;
52650;SDS011;38537;47.226;39.702;2023-03-26T19:47:06;8.75;;;6.55;;
52650;SDS011;38537;47.226;39.702;2023-03-26T19:49:58;9.35;;;6.68;;
52650;SDS011;38537;47.226;39.702;2023-03-26T19:52:33;9.68;;;6.85;;
52650;SDS011;38537;47.226;39.702;2023-03-26T19:57:55;10.77;;;7.60;;
52650;SDS011;38537;47.226;39.702;2023-03-26T20:00:22;12.85;;;7.50;;
52650;SDS011;38537;47.226;39.702;2023-03-26T20:02:49;10.95;;;7.78;;
52650;SDS011;38537;47.226;39.702;2023-03-26T20:05:18;10.27;;;7.28;;
52650;SDS011;38537;47.226;39.702;2023-03-26T20:08:00;11.85;;;7.88;;
52650;SDS011;38537;47.226;39.702;2023-03-26T20:10:38;10.55;;;8.00;;
52650;SDS011;38537;47.226;39.702;2023-03-26T20:13:15;12.30;;;7.95;;
52650;SDS011;38537;47.226;39.702;2023-03-26T20:15:52;20.13;;;13.77;;
52650;SDS011;38537;47.226;39.702;2023-03-26T20:18:32;15.90;;;9.52;;
52650;SDS011;38537;47.226;39.702;2023-03-26T20:21:00;13.02;;;9.02;;
52650;SDS011;38537;47.226;39.702;2023-03-26T20:23:28;11.88;;;9.10;;
52650;SDS011;38537;47.226;39.702;2023-03-26T20:25:55;14.43;;;9.50;;
52650;SDS011;38537;47.226;39.702;2023-03-26T20:28:23;15.63;;;9.40;;
52650;SDS011;38537;47.226;39.702;2023-03-26T20:30:50;14.65;;;9.30;;
52650;SDS011;38537;47.226;39.702;2023-03-26T20:33:21;14.35;;;9.38;;
52650;SDS011;38537;47.226;39.702;2023-03-26T20:35:52;14.82;;;9.20;;
52650;SDS011;38537;47.226;39.702;2023-03-26T20:38:22;12.95;;;8.75;;
52650;SDS011;38537;47.226;39.702;2023-03-26T20:41:08;16.30;;;9.77;;
52650;SDS011;38537;47.226;39.702;2023-03-26T20:43:49;16.95;;;9.90;;
52650;SDS011;38537;47.226;39.702;2023-03-26T20:46:19;16.80;;;9.88;;
52650;SDS011;38537;47.226;39.702;2023-03-26T20:48:57;17.02;;;9.70;;
52650;SDS011;38537;47.226;39.702;2023-03-26T20:51:25;13.32;;;9.82;;
52650;SDS011;38537;47.226;39.702;2023-03-26T20:53:54;15.38;;;9.60;;
52650;SDS011;38537;47.226;39.702;2023-03-26T20:56:22;14.65;;;10.30;;
52650;SDS011;38537;47.226;39.702;2023-03-26T20:58:49;16.40;;;10.48;;
52650;SDS011;38537;47.226;39.702;2023-03-26T21:01:36;14.30;;;9.80;;
52650;SDS011;38537;47.226;39.702;2023-03-26T21:04:04;18.15;;;10.43;;
52650;SDS011;38537;47.226;39.702;2023-03-26T21:06:32;16.25;;;9.65;;
52650;SDS011;38537;47.226;39.702;2023-03-26T21:09:00;12.48;;;8.40;;
52650;SDS011;38537;47.226;39.702;2023-03-26T21:14:03;19.55;;;9.98;;
52650;SDS011;38537;47.226;39.702;2023-03-26T21:16:35;17.88;;;8.75;;